createdAt,value
2024-03-02T00:00:32.304Z,8.92
2024-03-02T00:02:58.963Z,8.94
2024-03-02T00:05:25.548Z,8.97
2024-03-02T00:07:59.214Z,8.99
2024-03-02T00:10:40.681Z,9.00
2024-03-02T00:13:08.638Z,9.03
2024-03-02T00:15:54.864Z,9.06
2024-03-02T00:18:35.972Z,9.04
2024-03-02T00:21:07.042Z,8.92
2024-03-02T00:23:35.988Z,8.80
2024-03-02T00:26:03.039Z,8.69
2024-03-02T00:28:37.466Z,8.56
2024-03-02T00:31:09.862Z,8.50
2024-03-02T00:33:41.237Z,8.42
2024-03-02T00:36:09.164Z,8.38
2024-03-02T00:38:46.395Z,8.31
2024-03-02T00:41:20.160Z,8.27
2024-03-02T00:43:51.300Z,8.26
2024-03-02T00:46:19.927Z,8.25
2024-03-02T00:48:55.410Z,8.25
2024-03-02T00:51:24.113Z,8.20
2024-03-02T00:53:53.449Z,8.16
2024-03-02T00:56:20.379Z,8.13
2024-03-02T00:58:47.222Z,8.17
2024-03-02T01:01:14.026Z,8.18
2024-03-02T01:03:40.710Z,8.17
2024-03-02T01:06:08.327Z,8.18
2024-03-02T01:08:36.131Z,8.20
2024-03-02T01:11:04.280Z,8.20
2024-03-02T01:13:30.966Z,8.19
2024-03-02T01:15:58.011Z,8.22
2024-03-02T01:18:24.956Z,8.20
2024-03-02T01:20:56.947Z,8.22
2024-03-02T01:23:26.791Z,8.18
2024-03-02T01:25:53.942Z,8.15
2024-03-02T01:28:21.973Z,8.18
2024-03-02T01:30:49.295Z,8.15
2024-03-02T01:33:16.824Z,8.17
2024-03-02T01:35:43.562Z,8.18
2024-03-02T01:38:10.500Z,8.17
2024-03-02T01:40:38.720Z,8.17
2024-03-02T01:43:06.234Z,8.19
2024-03-02T01:45:33.461Z,8.18
2024-03-02T01:48:00.660Z,8.19
2024-03-02T01:50:32.798Z,8.20
2024-03-02T01:53:00.305Z,8.24
2024-03-02T01:55:27.101Z,8.23
2024-03-02T01:57:55.303Z,8.23
2024-03-02T02:00:22.942Z,8.21
2024-03-02T02:02:49.989Z,8.22
2024-03-02T02:05:17.144Z,8.21
2024-03-02T02:07:44.116Z,8.22
2024-03-02T02:10:13.984Z,8.18
2024-03-02T02:12:41.134Z,8.18
2024-03-02T02:15:28.498Z,8.20
2024-03-02T02:17:56.519Z,8.14
2024-03-02T02:20:23.496Z,8.12
2024-03-02T02:23:16.412Z,8.17
2024-03-02T02:25:42.944Z,8.08
2024-03-02T02:28:09.515Z,8.04
2024-03-02T02:30:36.144Z,8.06
2024-03-02T02:33:02.730Z,8.05
2024-03-02T02:35:30.478Z,8.02
2024-03-02T02:37:58.085Z,8.01
2024-03-02T02:40:24.838Z,8.00
2024-03-02T02:42:53.580Z,7.95
2024-03-02T02:45:20.598Z,7.97
2024-03-02T02:47:47.221Z,7.96
2024-03-02T02:50:14.208Z,7.97
2024-03-02T02:52:42.241Z,7.97
2024-03-02T02:55:13.166Z,7.99
2024-03-02T02:57:44.485Z,7.96
2024-03-02T03:00:18.133Z,7.95
2024-03-02T03:02:50.191Z,7.93
2024-03-02T03:05:18.259Z,7.94
2024-03-02T03:07:45.876Z,7.94
2024-03-02T03:10:12.797Z,7.92
2024-03-02T03:12:39.683Z,7.92
2024-03-02T03:15:08.046Z,7.93
2024-03-02T03:17:35.192Z,7.92
2024-03-02T03:20:03.708Z,7.92
2024-03-02T03:22:30.502Z,7.92
2024-03-02T03:24:57.144Z,7.92
2024-03-02T03:27:23.749Z,7.89
2024-03-02T03:29:50.378Z,7.89
2024-03-02T03:32:17.858Z,7.89
2024-03-02T03:34:44.515Z,7.89
2024-03-02T03:37:11.079Z,7.90
2024-03-02T03:39:37.869Z,7.87
2024-03-02T03:42:04.828Z,7.86
2024-03-02T03:44:31.536Z,7.86
2024-03-02T03:46:58.120Z,7.84
2024-03-02T03:49:24.645Z,7.85
2024-03-02T03:51:51.369Z,7.84
2024-03-02T03:54:18.162Z,7.83
2024-03-02T03:56:44.848Z,7.80
2024-03-02T03:59:11.465Z,7.81
2024-03-02T04:01:38.669Z,7.81
2024-03-02T04:04:05.286Z,7.82
2024-03-02T04:06:31.957Z,7.80
2024-03-02T04:08:58.608Z,7.78
2024-03-02T04:11:25.314Z,7.78
2024-03-02T04:13:51.936Z,7.76
2024-03-02T04:16:18.468Z,7.78
2024-03-02T04:18:45.218Z,7.78
2024-03-02T04:21:12.460Z,7.79
2024-03-02T04:23:39.303Z,7.79
2024-03-02T04:26:05.974Z,7.78
2024-03-02T04:28:32.628Z,7.79
2024-03-02T04:30:59.293Z,7.80
2024-03-02T04:33:26.102Z,7.79
2024-03-02T04:35:52.705Z,7.76
2024-03-02T04:38:19.380Z,7.79
2024-03-02T04:40:45.878Z,7.77
2024-03-02T04:43:16.077Z,7.74
2024-03-02T04:45:43.760Z,7.72
2024-03-02T04:48:10.381Z,7.71
2024-03-02T04:50:36.891Z,7.71
2024-03-02T04:53:03.828Z,7.71
2024-03-02T04:55:30.392Z,7.75
2024-03-02T04:57:57.224Z,7.77
2024-03-02T05:00:24.093Z,7.75
2024-03-02T05:02:50.985Z,7.75
2024-03-02T05:05:18.382Z,7.77
2024-03-02T05:07:45.288Z,7.75
2024-03-02T05:10:15.378Z,7.75
2024-03-02T05:12:45.513Z,7.75
2024-03-02T05:15:13.507Z,7.75
2024-03-02T05:17:41.206Z,7.71
2024-03-02T05:20:11.659Z,7.70
2024-03-02T05:22:38.651Z,7.71
2024-03-02T05:25:06.294Z,7.68
2024-03-02T05:27:35.949Z,7.70
2024-03-02T05:30:03.542Z,7.68
2024-03-02T05:32:30.142Z,7.71
2024-03-02T05:34:56.727Z,7.69
2024-03-02T05:37:23.425Z,7.66
2024-03-02T05:39:50.495Z,7.66
2024-03-02T05:42:18.166Z,7.66
2024-03-02T05:44:44.787Z,7.65
2024-03-02T05:47:11.483Z,7.64
2024-03-02T05:49:38.105Z,7.66
2024-03-02T05:52:04.743Z,7.64
2024-03-02T05:54:31.353Z,7.64
2024-03-02T05:56:57.994Z,7.63
2024-03-02T05:59:24.589Z,7.64
2024-03-02T06:01:54.366Z,7.64
2024-03-02T06:04:21.013Z,7.66
2024-03-02T06:06:47.697Z,7.68
2024-03-02T06:09:14.382Z,7.66
2024-03-02T06:11:42.351Z,7.64
2024-03-02T06:14:09.960Z,7.64
2024-03-02T06:16:36.548Z,7.62
2024-03-02T06:19:03.603Z,7.64
2024-03-02T06:21:30.684Z,7.59
2024-03-02T06:23:57.858Z,7.65
2024-03-02T06:26:26.000Z,7.64
2024-03-02T06:28:53.176Z,7.65
2024-03-02T06:31:19.902Z,7.66
2024-03-02T06:33:46.619Z,7.67
2024-03-02T06:36:13.301Z,7.66
2024-03-02T06:38:43.536Z,7.68
2024-03-02T06:41:10.487Z,7.63
2024-03-02T06:43:37.128Z,7.63
2024-03-02T06:46:03.980Z,7.64
2024-03-02T06:48:31.453Z,7.63
2024-03-02T06:50:59.371Z,7.62
2024-03-02T06:53:26.201Z,7.64
2024-03-02T06:55:52.882Z,7.65
2024-03-02T06:58:19.440Z,7.63
2024-03-02T07:00:46.217Z,7.65
2024-03-02T07:03:13.504Z,7.65
2024-03-02T07:05:40.404Z,7.66
2024-03-02T07:08:07.293Z,7.64
2024-03-02T07:10:33.857Z,7.64
2024-03-02T07:13:00.736Z,7.65
2024-03-02T07:15:45.490Z,7.63
2024-03-02T07:18:12.133Z,7.63
2024-03-02T07:20:40.000Z,7.65
2024-03-02T07:23:07.059Z,7.65
2024-03-02T07:28:04.017Z,7.67
2024-03-02T07:30:32.674Z,7.64
2024-03-02T07:33:00.986Z,7.65
2024-03-02T07:35:32.744Z,7.68
2024-03-02T07:37:59.386Z,7.65
2024-03-02T07:40:26.224Z,7.65
2024-03-02T07:42:53.005Z,7.64
2024-03-02T07:45:19.611Z,7.64
2024-03-02T07:47:47.323Z,7.63
2024-03-02T07:50:13.891Z,7.61
2024-03-02T07:52:40.501Z,7.63
2024-03-02T07:55:07.306Z,7.59
2024-03-02T07:57:34.028Z,7.61
2024-03-02T08:00:00.659Z,7.61
2024-03-02T08:02:27.361Z,7.60
2024-03-02T08:04:53.969Z,7.60
2024-03-02T08:07:20.589Z,7.58
2024-03-02T08:09:47.206Z,7.59
2024-03-02T08:12:13.806Z,7.59
2024-03-02T08:14:41.396Z,7.61
2024-03-02T08:17:10.518Z,7.62
2024-03-02T08:19:38.044Z,7.64
2024-03-02T08:22:04.743Z,7.66
2024-03-02T08:24:31.452Z,7.71
2024-03-02T08:26:59.852Z,7.74
2024-03-02T08:29:26.460Z,7.78
2024-03-02T08:31:53.041Z,7.82
2024-03-02T08:34:19.642Z,7.84
2024-03-02T08:36:47.272Z,7.87
2024-03-02T08:39:16.952Z,7.92
2024-03-02T08:41:45.381Z,7.94
2024-03-02T08:44:12.236Z,7.97
2024-03-02T08:46:39.787Z,8.02
2024-03-02T08:49:06.882Z,8.04
2024-03-02T08:51:34.151Z,8.08
2024-03-02T08:54:00.696Z,8.10
2024-03-02T08:56:27.370Z,8.14
2024-03-02T08:58:54.311Z,8.16
2024-03-02T09:01:21.109Z,8.22
2024-03-02T09:03:47.869Z,8.26
2024-03-02T09:06:14.933Z,8.27
2024-03-02T09:08:41.836Z,8.31
2024-03-02T09:11:08.561Z,8.34
2024-03-02T09:13:35.592Z,8.36
2024-03-02T09:16:02.337Z,8.42
2024-03-02T09:18:28.951Z,8.45
2024-03-02T09:20:55.602Z,8.47
2024-03-02T09:23:22.441Z,8.52
2024-03-02T09:25:51.512Z,8.55
2024-03-02T09:28:18.120Z,8.60
2024-03-02T09:30:44.769Z,8.65
2024-03-02T09:35:40.867Z,8.71
2024-03-02T09:38:07.608Z,8.76
2024-03-02T09:40:34.334Z,8.81
2024-03-02T09:43:01.516Z,8.84
2024-03-02T09:45:28.475Z,8.89
2024-03-02T09:47:55.951Z,8.93
2024-03-02T09:50:22.738Z,8.97
2024-03-02T09:52:51.196Z,8.97
2024-03-02T09:55:19.765Z,9.01
2024-03-02T09:57:47.184Z,9.03
2024-03-02T10:00:15.948Z,9.11
2024-03-02T10:02:43.451Z,9.14
2024-03-02T10:05:10.717Z,9.15
2024-03-02T10:07:37.459Z,9.20
2024-03-02T10:10:17.326Z,9.24
2024-03-02T10:12:44.085Z,9.28
2024-03-02T10:15:11.247Z,9.30
2024-03-02T10:17:38.049Z,9.32
2024-03-02T10:20:27.310Z,9.40
2024-03-02T10:22:53.960Z,9.38
2024-03-02T10:25:43.466Z,9.44
2024-03-02T10:28:19.049Z,9.44
2024-03-02T10:30:49.064Z,9.44
2024-03-02T10:33:15.913Z,9.48
2024-03-02T10:35:43.286Z,9.53
2024-03-02T10:38:12.343Z,9.56
2024-03-02T10:40:38.943Z,9.63
2024-03-02T10:43:06.981Z,9.66
2024-03-02T10:45:34.078Z,9.71
2024-03-02T10:48:03.366Z,9.72
2024-03-02T10:50:30.127Z,9.79
2024-03-02T10:52:56.656Z,9.81
2024-03-02T10:55:23.320Z,9.84
2024-03-02T10:57:53.361Z,9.88
2024-03-02T11:00:25.754Z,9.91
2024-03-02T11:02:57.231Z,9.97
2024-03-02T11:05:37.008Z,10.03
2024-03-02T11:08:09.920Z,10.05
2024-03-02T11:10:42.879Z,10.11
2024-03-02T11:13:13.707Z,10.18
2024-03-02T11:15:44.406Z,10.22
2024-03-02T11:18:12.811Z,10.27
2024-03-02T11:20:41.159Z,10.31
2024-03-02T11:23:09.000Z,10.39
2024-03-02T11:25:36.442Z,10.45
2024-03-02T11:28:05.157Z,10.51
2024-03-02T11:30:35.589Z,10.60
2024-03-02T11:33:12.319Z,10.60
2024-03-02T11:35:45.007Z,10.65
2024-03-02T11:38:11.831Z,10.72
2024-03-02T11:40:40.741Z,10.61
2024-03-02T11:43:09.211Z,10.62
2024-03-02T11:45:40.923Z,10.58
2024-03-02T11:48:07.971Z,10.69
2024-03-02T11:50:38.309Z,10.64
2024-03-02T11:53:09.812Z,10.71
2024-03-02T11:55:37.461Z,10.76
2024-03-02T11:58:07.715Z,10.81
2024-03-02T12:00:34.592Z,10.89
2024-03-02T12:03:02.138Z,10.95
2024-03-02T12:05:29.499Z,11.00
2024-03-02T12:07:58.444Z,11.07
2024-03-02T12:10:25.845Z,11.13
2024-03-02T12:13:07.602Z,11.17
2024-03-02T12:15:35.439Z,11.24
2024-03-02T12:18:03.067Z,11.20
2024-03-02T12:20:31.424Z,11.27
2024-03-02T12:23:03.657Z,11.28
2024-03-02T12:25:32.521Z,11.33
2024-03-02T12:28:01.701Z,11.34
2024-03-02T12:30:30.825Z,11.32
2024-03-02T12:32:59.222Z,11.35
2024-03-02T12:35:26.717Z,11.36
2024-03-02T12:37:56.958Z,11.39
2024-03-02T12:40:24.347Z,11.42
2024-03-02T12:42:52.078Z,11.46
2024-03-02T12:45:25.033Z,11.52
2024-03-02T12:47:52.992Z,11.56
2024-03-02T12:50:20.102Z,11.63
2024-03-02T12:52:55.533Z,11.71
2024-03-02T12:55:23.748Z,11.73
2024-03-02T12:57:54.778Z,11.82
2024-03-02T13:00:23.909Z,11.81
2024-03-02T13:02:52.430Z,11.87
2024-03-02T13:05:19.931Z,11.86
2024-03-02T13:07:48.993Z,11.85
2024-03-02T13:10:15.990Z,11.85
2024-03-02T13:12:44.803Z,11.91
2024-03-02T13:15:14.255Z,11.91
2024-03-02T13:17:42.923Z,11.99
2024-03-02T13:20:11.660Z,12.05
2024-03-02T13:22:38.954Z,12.15
2024-03-02T13:25:06.612Z,12.23
2024-03-02T13:27:34.017Z,12.23
2024-03-02T13:30:01.309Z,12.20
2024-03-02T13:32:28.032Z,12.23
2024-03-02T13:34:54.637Z,12.23
2024-03-02T13:37:24.806Z,12.21
2024-03-02T13:39:51.630Z,12.26
2024-03-02T13:42:18.820Z,12.35
2024-03-02T13:44:50.704Z,12.46
2024-03-02T13:47:17.334Z,12.52
2024-03-02T13:49:46.894Z,12.63
2024-03-02T13:52:17.707Z,12.71
2024-03-02T13:54:46.468Z,12.83
2024-03-02T13:57:13.402Z,12.90
2024-03-02T13:59:43.883Z,12.98
2024-03-02T14:02:12.411Z,13.08
2024-03-02T14:04:40.111Z,13.20
2024-03-02T14:07:10.232Z,13.23
2024-03-02T14:09:37.836Z,13.25
2024-03-02T14:12:06.851Z,13.32
2024-03-02T14:14:33.771Z,13.30
2024-03-02T14:17:07.594Z,13.28
2024-03-02T14:19:34.291Z,13.21
2024-03-02T14:22:01.160Z,13.17
2024-03-02T14:24:30.239Z,13.12
2024-03-02T14:27:05.522Z,13.03
2024-03-02T14:29:38.940Z,13.03
2024-03-02T14:32:06.266Z,13.01
2024-03-02T14:34:32.992Z,13.08
2024-03-02T14:37:00.182Z,13.11
2024-03-02T14:39:30.699Z,13.04
2024-03-02T14:41:57.304Z,13.02
2024-03-02T14:44:23.869Z,13.03
2024-03-02T14:46:50.500Z,13.12
2024-03-02T14:49:17.033Z,13.13
2024-03-02T14:51:44.900Z,13.10
2024-03-02T14:54:11.497Z,13.05
2024-03-02T14:56:38.103Z,13.04
2024-03-02T14:59:04.633Z,13.01
2024-03-02T15:01:31.391Z,13.05
2024-03-02T15:03:58.075Z,13.06
2024-03-02T15:06:24.824Z,13.04
2024-03-02T15:08:51.663Z,13.00
2024-03-02T15:11:18.269Z,12.98
2024-03-02T15:13:44.914Z,12.96
2024-03-02T15:16:11.729Z,12.96
2024-03-02T15:18:38.451Z,12.94
2024-03-02T15:21:05.922Z,12.92
2024-03-02T15:23:32.509Z,12.92
2024-03-02T15:25:59.150Z,12.92
2024-03-02T15:28:25.827Z,12.90
2024-03-02T15:30:55.089Z,12.88
2024-03-02T15:33:26.506Z,12.90
2024-03-02T15:35:56.700Z,12.88
2024-03-02T15:38:32.389Z,12.87
2024-03-02T15:41:00.225Z,12.89
2024-03-02T15:43:26.796Z,12.88
2024-03-02T15:45:53.378Z,12.91
2024-03-02T15:48:19.963Z,12.97
2024-03-02T15:50:46.581Z,12.98
2024-03-02T15:53:14.241Z,12.97
2024-03-02T15:55:40.927Z,12.93
2024-03-02T15:58:07.727Z,12.93
2024-03-02T16:00:34.430Z,13.00
2024-03-02T16:03:00.986Z,13.11
2024-03-02T16:05:29.662Z,13.20
2024-03-02T16:07:56.894Z,13.28
2024-03-02T16:10:23.989Z,13.30
2024-03-02T16:12:50.547Z,13.27
2024-03-02T16:15:17.216Z,13.26
2024-03-02T16:17:43.832Z,13.26
2024-03-02T16:20:11.373Z,13.23
2024-03-02T16:22:38.101Z,13.19
2024-03-02T16:25:05.900Z,13.19
2024-03-02T16:27:32.587Z,13.16
2024-03-02T16:30:00.326Z,13.15
2024-03-02T16:32:27.267Z,13.13
2024-03-02T16:34:54.130Z,13.10
2024-03-02T16:37:20.738Z,13.10
2024-03-02T16:39:47.880Z,13.09
2024-03-02T16:42:16.012Z,13.05
2024-03-02T16:44:42.633Z,13.03
2024-03-02T16:47:10.738Z,13.02
2024-03-02T16:49:38.488Z,12.99
2024-03-02T16:52:05.296Z,12.98
2024-03-02T16:54:31.949Z,12.96
2024-03-02T16:56:58.612Z,12.94
2024-03-02T16:59:25.158Z,12.90
2024-03-02T17:01:51.800Z,12.88
2024-03-02T17:04:19.819Z,12.88
2024-03-02T17:06:48.325Z,12.86
2024-03-02T17:09:14.962Z,12.85
2024-03-02T17:11:42.756Z,12.85
2024-03-02T17:14:09.479Z,12.84
2024-03-02T17:16:36.085Z,12.83
2024-03-02T17:19:02.770Z,12.82
2024-03-02T17:21:29.568Z,12.81
2024-03-02T17:23:57.189Z,12.80
2024-03-02T17:26:23.850Z,12.79
2024-03-02T17:28:50.693Z,12.79
2024-03-02T17:31:17.483Z,12.78
2024-03-02T17:33:44.121Z,12.77
2024-03-02T17:36:10.723Z,12.74
2024-03-02T17:38:37.339Z,12.76
2024-03-02T17:41:05.748Z,12.74
2024-03-02T17:43:35.411Z,12.71
2024-03-02T17:46:02.104Z,12.71
2024-03-02T17:48:29.348Z,12.70
2024-03-02T17:50:56.029Z,12.68
2024-03-02T17:53:22.697Z,12.68
2024-03-02T17:55:49.497Z,12.68
2024-03-02T17:58:16.954Z,12.66
2024-03-02T18:00:43.813Z,12.66
2024-03-02T18:03:10.707Z,12.66
2024-03-02T18:05:40.023Z,12.63
2024-03-02T18:08:07.221Z,12.65
2024-03-02T18:10:34.856Z,12.65
2024-03-02T18:13:01.553Z,12.63
2024-03-02T18:15:28.249Z,12.59
2024-03-02T18:17:54.909Z,12.61
2024-03-02T18:20:21.537Z,12.60
2024-03-02T18:22:48.300Z,12.59
2024-03-02T18:25:14.901Z,12.59
2024-03-02T18:27:41.537Z,12.60
2024-03-02T18:30:11.808Z,12.57
2024-03-02T18:32:39.616Z,12.55
2024-03-02T18:35:09.541Z,12.53
2024-03-02T18:37:37.189Z,12.54
2024-03-02T18:40:07.115Z,12.54
2024-03-02T18:42:33.863Z,12.54
2024-03-02T18:45:04.034Z,12.53
2024-03-02T18:47:30.668Z,12.53
2024-03-02T18:49:58.359Z,12.51
2024-03-02T18:52:28.822Z,12.52
2024-03-02T18:54:57.733Z,12.50
2024-03-02T18:57:24.366Z,12.51
2024-03-02T18:59:50.972Z,12.50
2024-03-02T19:02:17.537Z,12.50
2024-03-02T19:04:44.298Z,12.48
2024-03-02T19:07:11.566Z,12.49
2024-03-02T19:09:38.292Z,12.49
2024-03-02T19:12:05.311Z,12.45
2024-03-02T19:14:31.922Z,12.46
2024-03-02T19:16:58.615Z,12.46
2024-03-02T19:19:25.215Z,12.46
2024-03-02T19:21:59.379Z,12.46
2024-03-02T19:24:29.178Z,12.45
2024-03-02T19:26:55.795Z,12.45
2024-03-02T19:29:24.452Z,12.43
2024-03-02T19:31:51.101Z,12.42
2024-03-02T19:34:18.956Z,12.41
2024-03-02T19:36:45.721Z,12.42
2024-03-02T19:39:12.333Z,12.40
2024-03-02T19:41:38.891Z,12.40
2024-03-02T19:44:07.278Z,12.39
2024-03-02T19:46:33.889Z,12.38
2024-03-02T19:49:01.028Z,12.37
2024-03-02T19:51:27.700Z,12.35
2024-03-02T19:53:54.326Z,12.35
2024-03-02T19:56:20.992Z,12.34
2024-03-02T19:58:47.663Z,12.32
2024-03-02T20:01:18.293Z,12.27
2024-03-02T20:03:44.973Z,12.30
2024-03-02T20:06:11.599Z,12.27
2024-03-02T20:08:38.123Z,12.25
2024-03-02T20:11:05.022Z,12.24
2024-03-02T20:13:31.633Z,12.22
2024-03-02T20:15:59.499Z,12.20
2024-03-02T20:18:26.114Z,12.19
2024-03-02T20:20:52.773Z,12.16
2024-03-02T20:23:19.285Z,12.16
2024-03-02T20:25:45.972Z,12.15
2024-03-02T20:28:13.560Z,12.11
2024-03-02T20:30:41.826Z,12.08
2024-03-02T20:33:08.467Z,12.09
2024-03-02T20:35:35.106Z,12.07
2024-03-02T20:38:01.739Z,12.05
2024-03-02T20:40:29.005Z,12.05
2024-03-02T20:42:55.618Z,12.06
2024-03-02T20:45:22.238Z,12.06
2024-03-02T20:47:48.825Z,12.02
2024-03-02T20:50:16.335Z,12.02
2024-03-02T20:52:43.000Z,12.00
2024-03-02T20:55:11.394Z,11.99
2024-03-02T20:57:40.813Z,11.96
2024-03-02T21:00:10.550Z,11.96
2024-03-02T21:02:37.260Z,11.94
2024-03-02T21:05:04.487Z,11.91
2024-03-02T21:07:31.185Z,11.91
2024-03-02T21:09:58.439Z,11.88
2024-03-02T21:12:24.996Z,11.89
2024-03-02T21:14:51.577Z,11.89
2024-03-02T21:17:18.455Z,11.88
2024-03-02T21:19:45.007Z,11.86
2024-03-02T21:22:11.628Z,11.85
2024-03-02T21:24:38.346Z,11.83
2024-03-02T21:27:06.675Z,11.85
2024-03-02T21:29:33.288Z,11.83
2024-03-02T21:31:59.850Z,11.84
2024-03-02T21:34:26.442Z,11.84
2024-03-02T21:36:53.192Z,11.84
2024-03-02T21:39:21.427Z,11.83
2024-03-02T21:41:52.831Z,11.84
2024-03-02T21:44:19.468Z,11.82
2024-03-02T21:46:46.744Z,11.81
2024-03-02T21:49:13.389Z,11.80
2024-03-02T21:51:40.180Z,11.80
2024-03-02T21:54:06.956Z,11.79
2024-03-02T21:56:33.572Z,11.76
2024-03-02T21:59:00.228Z,11.77
2024-03-02T22:01:28.199Z,11.76
2024-03-02T22:03:54.864Z,11.76
2024-03-02T22:06:21.377Z,11.77
2024-03-02T22:08:47.913Z,11.77
2024-03-02T22:11:14.560Z,11.77
2024-03-02T22:13:41.127Z,11.78
2024-03-02T22:16:07.804Z,11.75
2024-03-02T22:18:34.501Z,11.73
2024-03-02T22:21:01.087Z,11.70
2024-03-02T22:23:27.698Z,11.69
2024-03-02T22:25:54.297Z,11.69
2024-03-02T22:28:20.981Z,11.70
2024-03-02T22:30:47.620Z,11.68
2024-03-02T22:33:14.321Z,11.65
2024-03-02T22:35:41.351Z,11.63
2024-03-02T22:38:07.873Z,11.62
2024-03-02T22:40:34.557Z,11.63
2024-03-02T22:43:01.333Z,11.63
2024-03-02T22:45:28.080Z,11.62
2024-03-02T22:47:56.053Z,11.61
2024-03-02T22:50:24.643Z,11.63
2024-03-02T22:52:51.219Z,11.61
2024-03-02T22:55:18.072Z,11.60
2024-03-02T22:57:44.762Z,11.59
2024-03-02T23:00:30.295Z,11.57
2024-03-02T23:02:57.074Z,11.56
2024-03-02T23:05:25.974Z,11.58
2024-03-02T23:07:52.611Z,11.55
2024-03-02T23:10:20.612Z,11.54
2024-03-02T23:12:47.297Z,11.55
2024-03-02T23:15:13.930Z,11.53
2024-03-02T23:17:40.501Z,11.52
2024-03-02T23:20:07.884Z,11.48
2024-03-02T23:22:34.438Z,11.50
2024-03-02T23:25:01.100Z,11.50
2024-03-02T23:27:27.711Z,11.45
2024-03-02T23:29:56.887Z,11.45
2024-03-02T23:32:23.818Z,11.43
2024-03-02T23:34:50.432Z,11.42
2024-03-02T23:37:17.113Z,11.44
2024-03-02T23:40:01.792Z,11.44
2024-03-02T23:42:29.246Z,11.42
2024-03-02T23:44:55.953Z,11.42
2024-03-02T23:47:22.814Z,11.40
2024-03-02T23:49:49.503Z,11.38
2024-03-02T23:52:16.144Z,11.38
2024-03-02T23:54:43.503Z,11.38
2024-03-02T23:57:10.228Z,11.39
2024-03-02T23:59:36.766Z,11.38
